Mountain Grove, Missouri
Current Conditions -  °F | °C
As of 1:53 PM on Sunday 21 Dec 2014 (Local Time) from KUNO Reporting Station
Overcast Overcast  
Wind Chill: 36°   Ceiling: 3600
Heat Index: 41°   Visibility: 10mi
Dew Point: 33°   Wind: 8mph
Humidity: 73%   Direction: 120°ESE
Pressure: 30.01"   Gusts: NA
Location:  37.13°N, 92.26°W
Report Text: KUNO 211953Z AUTO 12007KT 10SM OVC036 05/01 A3001 RMK AO2 SLP167 T00500006 $
Loading
Personal Weather Stations






























Interactive Weather Map New forecast layout! Learn more

10-Day Weather Forecast

Advertisements
Track Severe Weather on mobile